Latest Weather Observations for Portland Airport

IDV60801

Issued at 11:31 pm EDT Monday 26 January 2015 (issued every 30 minutes, with the page automatically refreshed every 10 minutes)

About weather observations | Map of weather stations | Latest weather observations for VIC | Other Formats
Station Details ID: 090171 Name: CASHMORE AIRPORT Lat: -38.31 Lon: 141.47 Height: 80.9 m
Data from the previous 72 hours. | See also: Recent months at Portland Airport
Date/Time
EDT
Temp
°C
App
Temp
°C
Dew
Point
Rel
Hum
%
Delta-T
°C
Wind Press
QNH
hPa
Press
MSL
hPa
Rain
since 9 am
mm
Dir
 
Spd
km/h
Gust
km/h
Spd
kts
Gust
kts
26/11:30pm 7.0 5.8 4.7 85 1.0 CALM 0 6 0 3 1019.3 1019.2 0.0
26/11:00pm 8.1 7.1 5.6 84 1.1 CALM 0 0 0 0 1019.5 1019.4 0.0
26/10:30pm 9.0 8.0 5.6 79 1.5 CALM 0 0 0 0 1019.6 1019.5 0.0
26/10:00pm 10.4 9.5 6.2 75 2.0 CALM 0 0 0 0 1019.6 1019.5 0.0
26/09:30pm 12.3 10.8 6.8 69 2.6 S 4 7 2 4 1019.4 1019.3 0.0
26/09:00pm 13.2 11.4 7.2 67 2.9 SSE 6 9 3 5 1019.2 1019.1 0.0
26/08:30pm 14.3 12.1 8.0 66 3.1 SSE 9 20 5 11 1018.9 1018.8 0.0
26/08:00pm 14.9 12.0 8.2 64 3.4 S 13 19 7 10 1018.7 1018.6 0.0
26/07:30pm 15.4 11.7 7.9 61 3.8 S 17 24 9 13 1018.4 1018.3 0.0
26/07:00pm 15.5 11.8 7.8 60 3.9 S 17 28 9 15 1018.2 1018.1 0.0
26/06:30pm 15.6 11.9 7.9 60 3.9 S 17 28 9 15 1018.2 1018.1 0.0
26/06:00pm 16.3 12.9 9.0 62 3.8 SSE 17 22 9 12 1018.0 1017.9 0.0
26/05:30pm 15.4 11.8 6.9 57 4.2 S 15 24 8 13 1018.2 1018.1 0.0
26/05:00pm 15.2 11.4 7.5 60 3.8 S 17 24 9 13 1018.3 1018.2 0.0
26/04:30pm 17.1 13.1 9.0 59 4.2 S 20 30 11 16 1018.3 1018.2 0.0
26/04:00pm 15.9 12.3 8.4 61 3.8 S 17 26 9 14 1018.3 1018.2 0.0
26/03:30pm 17.4 13.5 8.8 57 4.4 S 19 33 10 18 1018.2 1018.1 0.0
26/03:00pm 16.7 13.3 9.1 61 3.9 S 17 28 9 15 1018.3 1018.2 0.0
26/02:30pm 15.8 11.6 7.3 57 4.2 S 19 26 10 14 1018.3 1018.2 0.0
26/02:00pm 16.3 11.9 6.7 53 4.7 S 19 28 10 15 1018.4 1018.3 0.0
26/01:30pm 16.9 13.4 8.8 59 4.2 SSW 17 30 9 16 1018.5 1018.4 0.0
26/01:00pm 15.8 12.0 7.6 58 4.1 S 17 26 9 14 1018.6 1018.5 0.0
26/12:30pm 15.3 11.4 7.3 59 4.0 S 17 26 9 14 1018.7 1018.6 0.0
26/12:00pm 15.8 12.4 7.8 59 4.0 S 15 22 8 12 1018.7 1018.6 0.0
26/11:30am 15.6 12.4 8.4 62 3.7 S 15 24 8 13 1018.8 1018.7 0.0
26/11:00am 16.3 13.1 6.7 53 4.7 S 13 20 7 11 1018.7 1018.6 0.0
26/10:30am 15.6 12.5 7.4 58 4.1 S 13 20 7 11 1018.7 1018.6 0.0
26/10:00am 15.4 13.5 8.9 65 3.3 S 9 17 5 9 1018.5 1018.4 0.0
26/09:30am 13.9 12.2 8.5 70 2.7 WSW 7 15 4 8 1018.3 1018.2 0.0
26/09:00am 12.7 11.6 9.9 83 1.4 SSW 6 7 3 4 1018.2 1018.1 0.6
26/08:30am 13.2 11.1 8.1 71 2.5 SSW 9 13 5 7 1017.7 1017.5 0.4
26/08:00am 11.5 10.3 9.4 87 1.1 SSW 6 7 3 4 1017.4 1017.2 0.2
26/07:30am 8.1 6.2 6.7 91 0.6 SSW 6 7 3 4 1017.0 1016.8 0.2
26/07:00am 5.6 4.2 3.8 88 0.8 CALM 0 0 0 0 1016.7 1016.5 0.2
26/06:30am 6.2 4.9 4.2 87 0.9 CALM 0 4 0 2 1016.4 1016.2 0.2
26/06:00am 6.9 4.6 4.7 86 1.0 SSW 6 7 3 4 1016.0 1015.8 0.2
26/05:30am 7.4 4.9 5.0 85 1.1 SSW 7 7 4 4 1015.6 1015.4 0.2
26/05:00am 7.5 5.0 4.8 83 1.2 SSW 7 9 4 5 1015.3 1015.1 0.2
26/04:30am 9.8 7.6 6.3 79 1.6 SSW 7 9 4 5 1015.2 1015.0 0.2
26/04:00am 8.9 6.6 5.6 80 1.5 SSW 7 11 4 6 1015.2 1015.0 0.2
26/03:30am 8.5 5.9 4.3 75 1.8 SSW 7 9 4 5 1015.1 1014.9 0.2
26/03:00am 10.3 7.5 5.3 71 2.3 SSW 9 11 5 6 1015.0 1014.8 0.2
26/02:30am 10.7 8.1 6.1 73 2.1 SW 9 11 5 6 1015.0 1014.8 0.2
26/02:00am 11.2 8.3 6.3 72 2.3 SW 11 15 6 8 1014.8 1014.6 0.2
26/01:30am 11.0 7.9 5.5 69 2.5 SW 11 15 6 8 1014.8 1014.6 0.2
26/01:00am 10.7 8.1 6.1 73 2.1 SW 9 13 5 7 1014.7 1014.5 0.2
26/12:30am 11.8 9.3 6.7 71 2.4 SSW 9 13 5 7 1014.7 1014.5 0.2
26/12:00am 11.4 8.9 6.5 72 2.3 SW 9 11 5 6 1014.7 1014.5 0.2
 
Date/Time
EDT
Temp
°C
App
Temp
°C
Dew
Point
Rel
Hum
%
Delta-T
°C
Wind Press
QNH
hPa
Press
MSL
hPa
Rain
since 9 am
mm
Dir
 
Spd
km/h
Gust
km/h
Spd
kts
Gust
kts
25/11:30pm 11.4 8.5 6.3 71 2.4 SW 11 15 6 8 1014.6 1014.4 0.2
25/11:00pm 12.4 9.7 7.5 72 2.4 WSW 11 19 6 10 1014.6 1014.4 0.2
25/10:30pm 11.7 8.9 6.8 72 2.3 SW 11 17 6 9 1014.4 1014.2 0.2
25/10:00pm 12.2 9.0 6.7 69 2.6 SW 13 20 7 11 1014.1 1013.9 0.2
25/09:30pm 12.4 9.2 6.9 69 2.6 SW 13 20 7 11 1013.8 1013.6 0.2
25/09:00pm 12.9 9.4 7.1 68 2.8 SW 15 20 8 11 1013.6 1013.4 0.2
25/08:30pm 13.8 9.6 7.6 66 3.1 WSW 19 26 10 14 1013.4 1013.2 0.2
25/08:00pm 13.9 9.0 7.0 63 3.4 WSW 22 32 12 17 1013.2 1013.0 0.2
25/07:30pm 14.9 9.9 7.9 63 3.5 WSW 24 39 13 21 1012.9 1012.7 0.2
25/07:00pm 15.0 10.1 8.5 65 3.3 WSW 24 35 13 19 1012.6 1012.4 0.2
25/06:30pm 15.6 9.8 7.9 60 3.9 WSW 28 39 15 21 1012.5 1012.3 0.2
25/06:00pm 15.1 9.2 7.4 60 3.8 WSW 28 39 15 21 1012.4 1012.2 0.2
25/05:30pm 16.5 10.2 7.2 54 4.6 WSW 30 44 16 24 1012.1 1012.0 0.2
25/05:00pm 16.2 9.6 8.7 61 3.9 WSW 33 46 18 25 1012.0 1011.9 0.2
25/04:39pm 15.6 9.2 8.6 63 3.6 W 32 50 17 27 1011.8 1011.7 0.2
25/04:30pm 16.4 10.0 8.6 60 4.0 W 32 43 17 23 1011.6 1011.5 0.2
25/04:00pm 16.6 10.3 8.8 60 4.0 W 32 44 17 24 1011.6 1011.5 0.2
25/03:30pm 13.1 7.3 9.4 78 1.9 W 30 43 16 23 1011.9 1011.8 0.2
25/03:00pm 17.2 10.2 8.4 56 4.5 WSW 35 46 19 25 1011.5 1011.4 0.0
25/02:30pm 16.7 7.9 7.1 53 4.8 WSW 43 57 23 31 1011.3 1011.2 0.0
25/02:18pm 17.8 11.4 8.4 54 4.8 WSW 32 50 17 27 1011.2 1011.1 0.0
25/02:00pm 17.1 10.8 9.8 62 3.9 W 33 44 18 24 1011.1 1011.0 0.0
25/01:30pm 15.7 9.0 8.2 61 3.8 W 33 48 18 26 1011.0 1010.9 0.0
25/01:00pm 16.4 9.9 9.1 62 3.8 WSW 33 44 18 24 1010.9 1010.8 0.0
25/12:37pm 15.4 9.0 8.4 63 3.6 W 32 50 17 27 1010.8 1010.7 0.0
25/12:30pm 15.2 10.4 10.4 73 2.5 W 26 35 14 19 1010.9 1010.8 0.0
25/12:15pm 14.3 7.6 8.3 67 3.0 W 33 52 18 28 1010.8 1010.7 0.0
25/12:00pm 13.9 8.1 9.5 75 2.3 W 30 43 16 23 1010.6 1010.5 0.0
25/11:40am 14.6 7.5 8.1 65 3.3 W 35 57 19 31 1010.1 1010.0 0.0
25/11:30am 16.1 8.6 7.8 58 4.2 W 37 52 20 28 1010.0 1009.9 0.0
25/11:03am 15.3 9.0 9.0 66 3.2 WSW 32 50 17 27 1009.9 1009.8 0.0
25/11:00am 14.6 7.9 8.3 66 3.2 WSW 33 50 18 27 1009.9 1009.8 0.0
25/10:30am 15.4 8.7 7.2 58 4.1 W 32 46 17 25 1009.5 1009.4 0.0
25/10:00am 14.6 7.7 7.2 61 3.7 W 33 44 18 24 1009.2 1009.1 0.0
25/09:30am 14.6 8.3 7.6 63 3.5 WSW 30 44 16 24 1008.8 1008.7 0.0
25/09:00am 14.2 7.4 6.8 61 3.6 WSW 32 43 17 23 1008.5 1008.4 7.2
25/08:48am 14.3 8.0 7.4 63 3.4 WSW 30 52 16 28 1008.3 1008.2 7.2
25/08:30am 13.2 7.2 7.2 67 2.9 WSW 28 43 15 23 1008.2 1008.1 7.2
25/08:00am 13.8 8.6 7.1 64 3.3 WSW 24 33 13 18 1007.5 1007.4 7.2
25/07:30am 13.2 7.5 6.5 64 3.2 WSW 26 37 14 20 1007.1 1006.9 7.2
25/07:00am 12.5 7.6 6.8 68 2.8 WSW 22 32 12 17 1006.8 1006.6 7.2
25/06:30am 12.5 7.1 6.5 67 2.9 WSW 24 37 13 20 1006.6 1006.4 7.2
25/06:00am 12.5 7.2 6.8 68 2.8 WSW 24 33 13 18 1006.3 1006.1 7.2
25/05:30am 12.8 8.1 7.7 71 2.5 WSW 22 32 12 17 1006.0 1005.8 7.2
25/05:00am 12.7 8.0 7.6 71 2.5 WSW 22 30 12 16 1005.9 1005.7 7.2
25/04:30am 12.8 8.1 7.9 72 2.4 WSW 22 30 12 16 1005.7 1005.5 7.2
25/04:00am 12.7 7.2 7.6 71 2.5 WSW 26 35 14 19 1005.7 1005.5 7.2
25/03:30am 12.7 8.2 8.6 76 2.1 WSW 22 32 12 17 1005.5 1005.3 7.2
25/03:00am 12.9 8.6 9.2 78 1.9 WSW 22 30 12 16 1005.5 1005.3 7.2
25/02:30am 12.9 9.5 10.4 85 1.3 WSW 19 28 10 15 1005.3 1005.1 7.2
25/02:00am 13.0 10.7 11.6 91 0.7 WSW 15 24 8 13 1005.4 1005.2 7.2
25/01:30am 12.7 9.9 11.3 91 0.7 SW 17 24 9 13 1005.3 1005.1 7.0
25/01:00am 13.1 9.9 11.3 89 1.0 WSW 19 26 10 14 1005.3 1005.1 6.6
25/12:46am 13.3 10.3 12.4 94 0.5 WSW 20 30 11 16 1005.1 1004.9 6.4
25/12:30am 13.8 11.6 13.2 96 0.3 W 17 30 9 16 1004.9 1004.7 5.4
25/12:29am 13.8 11.6 13.2 96 0.3 W 17 30 9 16 1004.9 1004.7 5.4
25/12:24am 13.9 12.5 13.3 96 0.3 W 13 19 7 10 1004.7 1004.5 4.6
25/12:07am 13.8 11.6 13.2 96 0.3 WSW 17 24 9 13 1004.8 1004.6 4.4
25/12:00am 13.9 11.1 13.3 96 0.3 WSW 20 30 11 16 1004.8 1004.6 4.4
 
Date/Time
EDT
Temp
°C
App
Temp
°C
Dew
Point
Rel
Hum
%
Delta-T
°C
Wind Press
QNH
hPa
Press
MSL
hPa
Rain
since 9 am
mm
Dir
 
Spd
km/h
Gust
km/h
Spd
kts
Gust
kts
24/11:43pm 13.6 10.3 12.8 95 0.4 WSW 22 32 12 17 1004.8 1004.6 4.0
24/11:30pm 13.9 10.7 13.1 95 0.4 W 22 28 12 15 1004.8 1004.6 3.4
24/11:29pm 13.9 10.7 13.1 95 0.4 W 22 30 12 16 1004.8 1004.6 3.2
24/11:20pm 13.6 10.3 12.8 95 0.4 W 22 33 12 18 1004.7 1004.5 2.6
24/11:14pm 13.5 9.8 12.7 95 0.4 W 24 33 13 18 1004.7 1004.5 2.6
24/11:00pm 13.6 10.3 12.8 95 0.4 W 22 35 12 19 1004.8 1004.6 2.4
24/10:30pm 14.4 11.0 13.8 96 0.3 WNW 24 32 13 17 1004.3 1004.1 2.0
24/10:00pm 15.1 11.8 14.1 94 0.6 WNW 24 35 13 19 1003.9 1003.7 0.4
24/09:41pm 15.1 12.6 14.1 94 0.6 NW 20 33 11 18 1003.8 1003.6 0.2
24/09:38pm 15.0 12.5 14.0 94 0.6 NW 20 26 11 14 1003.7 1003.5 0.2
24/09:30pm 14.9 12.0 13.9 94 0.6 NW 22 28 12 15 1003.7 1003.5 0.2
24/09:27pm 14.9 11.9 13.8 93 0.6 NW 22 30 12 16 1003.7 1003.5 0.2
24/09:00pm 15.3 10.1 13.3 88 1.1 WNW 33 46 18 25 1003.6 1003.4 0.0
24/08:55pm 15.8 10.0 13.8 88 1.1 WNW 37 54 20 29 1003.5 1003.3 0.0
24/08:34pm 17.9 12.8 13.2 74 2.7 WNW 32 54 17 29 1003.0 1002.8 0.0
24/08:30pm 18.0 12.9 13.1 73 2.8 WNW 32 39 17 21 1003.0 1002.8 0.0
24/08:00pm 18.1 13.2 12.5 70 3.1 WNW 30 41 16 22 1002.9 1002.7 0.0
24/07:30pm 19.7 13.5 11.5 59 4.5 WNW 35 52 19 28 1002.4 1002.2 0.0
24/07:00pm 20.0 13.7 11.2 57 4.9 WNW 35 54 19 29 1002.4 1002.2 0.0
24/06:52pm 20.0 13.8 11.5 58 4.7 WNW 35 54 19 29 1002.4 1002.2 0.0
24/06:30pm 20.3 14.7 12.0 59 4.6 WNW 33 46 18 25 1002.5 1002.3 0.0
24/06:08pm 20.8 15.3 11.7 56 5.1 W 32 52 17 28 1002.6 1002.4 0.0
24/06:00pm 20.6 15.0 11.5 56 5.1 WNW 32 44 17 24 1002.6 1002.4 0.0
24/05:30pm 20.7 14.5 11.3 55 5.2 WNW 35 48 19 26 1002.8 1002.6 0.0
24/05:00pm 20.9 15.1 11.5 55 5.3 W 33 46 18 25 1003.2 1003.0 0.0
24/04:39pm 22.5 16.0 9.0 42 7.2 WNW 33 52 18 28 1003.1 1002.9 0.0
24/04:30pm 23.1 16.9 10.2 44 7.1 WNW 33 50 18 27 1003.3 1003.1 0.0
24/04:00pm 21.0 15.0 10.8 52 5.6 WNW 33 48 18 26 1003.7 1003.5 0.0
24/03:30pm 20.6 13.9 9.8 50 5.8 WNW 35 54 19 29 1003.8 1003.6 0.0
24/03:29pm 21.1 14.8 10.9 52 5.6 WNW 35 54 19 29 1003.9 1003.7 0.0
24/03:00pm 20.6 14.2 10.7 53 5.4 WNW 35 50 19 27 1004.0 1003.8 0.0
24/02:30pm 20.5 15.0 12.0 58 4.8 WNW 32 46 17 25 1004.0 1003.8 0.0
24/02:23pm 19.7 14.5 12.9 65 3.9 WNW 32 50 17 27 1004.3 1004.1 0.0
24/02:00pm 18.7 12.3 13.1 70 3.2 W 39 50 21 27 1004.5 1004.3 0.0
24/01:30pm 20.5 15.2 13.2 63 4.2 W 33 44 18 24 1004.7 1004.5 0.0
24/01:00pm 21.0 15.2 10.8 52 5.6 W 32 43 17 23 1004.7 1004.5 0.0
24/12:30pm 21.3 16.3 10.8 51 5.8 W 28 39 15 21 1004.7 1004.5 0.0
24/12:00pm 21.3 17.5 11.1 52 5.7 NNW 22 33 12 18 1004.9 1004.7 0.0
24/11:30am 19.9 16.3 9.8 52 5.4 NNW 19 30 10 16 1005.1 1004.9 0.0
24/11:00am 19.2 15.4 9.1 52 5.3 NW 19 32 10 17 1005.7 1005.5 0.0
24/10:30am 18.4 14.6 8.9 54 5.0 NNW 19 24 10 13 1005.8 1005.6 0.0
24/10:00am 17.4 14.2 9.8 61 4.0 NNW 17 24 9 13 1006.2 1006.0 0.0
24/09:30am 16.2 13.3 10.9 71 2.8 N 17 24 9 13 1006.3 1006.1 0.0
24/09:00am 15.7 13.4 11.9 78 2.1 NW 15 20 8 11 1006.7 1006.5 0.2
24/08:30am 14.6 12.9 12.3 86 1.3 NW 13 19 7 10 1006.6 1006.4 0.2
24/08:00am 13.1 12.2 12.6 97 0.3 NW 9 13 5 7 1006.6 1006.4 0.2
24/07:30am 10.8 9.3 10.5 98 0.2 NNW 9 11 5 6 1006.5 1006.3 0.2
24/07:00am 8.9 6.9 8.6 98 0.1 NW 9 11 5 6 1006.6 1006.4 0.0
24/06:30am 8.7 6.6 8.3 97 0.2 NNW 9 11 5 6 1006.6 1006.4 0.0
24/06:00am 8.9 6.9 8.5 97 0.2 NW 9 11 5 6 1006.6 1006.4 0.0
24/05:30am 9.0 7.0 8.5 97 0.2 NW 9 11 5 6 1006.4 1006.2 0.0
24/05:00am 10.2 8.1 9.9 98 0.2 NW 11 13 6 7 1006.4 1006.2 0.0
24/04:30am 9.7 7.9 9.4 98 0.1 NNW 9 11 5 6 1006.3 1006.1 0.0
24/04:00am 7.9 6.1 7.3 96 0.3 N 6 7 3 4 1006.5 1006.3 0.0
24/03:30am 8.2 6.5 7.6 96 0.3 N 6 9 3 5 1007.0 1006.8 0.0
24/03:00am 8.2 6.3 7.6 96 0.3 N 7 7 4 4 1007.1 1006.9 0.0
24/02:30am 9.7 7.8 9.1 96 0.3 N 9 9 5 5 1007.5 1007.4 0.0
24/02:00am 8.8 8.4 8.2 96 0.3 CALM 0 0 0 0 1007.9 1007.8 0.0
24/01:30am 8.8 7.6 8.2 96 0.3 W 4 7 2 4 1008.0 1007.9 0.0
24/01:00am 8.7 7.1 7.9 95 0.4 S 6 7 3 4 1008.3 1008.2 0.0
24/12:30am 9.5 8.5 8.7 95 0.4 S 4 7 2 4 1008.6 1008.5 0.0
24/12:23am 9.7 8.7 8.9 95 0.4 S 4 7 2 4 1008.7 1008.6 0.0
24/12:05am 9.4 9.1 8.5 94 0.4 CALM 0 0 0 0 1008.8 1008.7 0.0
24/12:00am 9.5 9.2 8.6 94 0.4 CALM 0 0 0 0 1008.7 1008.6 0.0

Other Formats:

Comma delimited format used in spreadsheet applications
http://www.bom.gov.au/fwo/IDV60801/IDV60801.94828.axf

JavaScript Object Notation format (JSON) in row-major order
http://www.bom.gov.au/fwo/IDV60801/IDV60801.94828.json